createdAt,value
2023-02-09T00:03:46.442Z,41.78
2023-02-09T00:08:43.485Z,38.05
2023-02-09T00:13:40.274Z,37.72
2023-02-09T00:18:37.158Z,34.17
2023-02-09T00:23:37.188Z,40.55
2023-02-09T00:28:34.708Z,37.33
2023-02-09T00:33:31.575Z,31.55
2023-02-09T00:38:28.484Z,24.00
2023-02-09T00:43:26.157Z,20.08
2023-02-09T00:48:23.440Z,17.88
2023-02-09T00:53:21.659Z,19.20
2023-02-09T00:58:18.837Z,25.60
2023-02-09T01:03:16.336Z,22.55
2023-02-09T01:08:13.320Z,23.50
2023-02-09T01:13:10.518Z,19.15
2023-02-09T01:18:07.496Z,18.85
2023-02-09T01:23:05.071Z,18.52
2023-02-09T01:28:01.923Z,17.30
2023-02-09T01:33:01.559Z,16.27
2023-02-09T01:37:58.516Z,15.73
2023-02-09T01:42:56.085Z,16.40
2023-02-09T01:47:58.408Z,15.38
2023-02-09T01:52:55.497Z,19.60
2023-02-09T01:57:57.481Z,18.55
2023-02-09T02:02:57.611Z,19.83
2023-02-09T02:08:01.120Z,19.88
2023-02-09T02:13:02.033Z,22.20
2023-02-09T02:18:26.880Z,23.58
2023-02-09T02:23:30.344Z,24.08
2023-02-09T02:28:44.610Z,22.50
2023-02-09T02:33:51.686Z,23.60
2023-02-09T02:38:55.033Z,24.85
2023-02-09T02:43:59.176Z,27.77
2023-02-09T02:49:03.657Z,26.55
2023-02-09T02:54:04.397Z,26.20
2023-02-09T02:59:06.290Z,27.33
2023-02-09T03:04:06.450Z,25.38
2023-02-09T03:09:03.996Z,25.60
2023-02-09T03:14:18.115Z,25.88
2023-02-09T03:19:29.869Z,24.63
2023-02-09T03:24:36.220Z,23.70
2023-02-09T03:29:35.192Z,24.00
2023-02-09T03:34:32.909Z,23.98
2023-02-09T03:39:29.771Z,25.50
2023-02-09T03:44:26.549Z,22.48
2023-02-09T03:49:25.278Z,22.95
2023-02-09T03:54:22.804Z,21.35
2023-02-09T03:59:20.971Z,22.02
2023-02-09T04:04:17.990Z,25.67
2023-02-09T04:09:15.158Z,28.02
2023-02-09T04:14:14.458Z,25.92
2023-02-09T04:19:11.791Z,23.70
2023-02-09T04:24:09.027Z,15.70
2023-02-09T04:29:05.863Z,15.55
2023-02-09T04:34:03.430Z,23.20
2023-02-09T04:39:00.206Z,15.55
2023-02-09T04:43:56.911Z,16.08
2023-02-09T04:48:53.975Z,15.10
2023-02-09T04:53:51.572Z,17.67
2023-02-09T04:59:06.315Z,15.52
2023-02-09T05:04:03.186Z,15.10
2023-02-09T05:09:00.824Z,14.38
2023-02-09T05:13:57.764Z,13.77
2023-02-09T05:18:54.894Z,13.35
2023-02-09T05:23:51.834Z,12.88
2023-02-09T05:28:49.443Z,19.23
2023-02-09T05:33:46.483Z,15.27
2023-02-09T05:38:43.352Z,11.52
2023-02-09T05:43:42.899Z,17.05
2023-02-09T05:48:40.912Z,14.20
2023-02-09T05:53:37.961Z,16.50
2023-02-09T05:58:34.765Z,16.20
2023-02-09T06:03:32.074Z,16.15
2023-02-09T06:08:29.801Z,18.30
2023-02-09T06:13:26.582Z,13.77
2023-02-09T06:18:23.541Z,15.32
2023-02-09T06:23:20.239Z,17.75
2023-02-09T06:28:17.780Z,18.17
2023-02-09T06:33:14.576Z,22.38
2023-02-09T06:38:18.851Z,21.15
2023-02-09T06:43:16.117Z,20.40
2023-02-09T06:48:13.638Z,17.13
2023-02-09T06:53:19.422Z,20.75
2023-02-09T07:03:15.732Z,20.08
2023-02-09T07:08:16.850Z,18.80
2023-02-09T07:13:13.793Z,20.20
2023-02-09T07:18:11.884Z,21.60
2023-02-09T07:23:11.134Z,19.30
2023-02-09T07:28:08.097Z,20.33
2023-02-09T07:33:08.591Z,16.13
2023-02-09T07:38:05.622Z,23.02
2023-02-09T07:43:06.772Z,23.73
2023-02-09T07:48:03.696Z,26.60
2023-02-09T07:53:01.925Z,19.77
2023-02-09T07:58:00.735Z,25.00
2023-02-09T08:02:59.791Z,23.73
2023-02-09T08:07:57.043Z,23.55
2023-02-09T08:13:02.978Z,23.80
2023-02-09T08:23:07.504Z,22.85
2023-02-09T08:28:08.298Z,21.45
2023-02-09T08:33:06.085Z,22.50
2023-02-09T08:38:05.104Z,25.50
2023-02-09T08:43:04.192Z,20.88
2023-02-09T08:48:00.945Z,19.30
2023-02-09T08:52:59.248Z,17.48
2023-02-09T08:57:56.106Z,23.38
2023-02-09T09:02:53.074Z,20.40
2023-02-09T09:07:56.386Z,20.23
2023-02-09T09:12:53.925Z,20.52
2023-02-09T09:17:50.970Z,14.88
2023-02-09T09:22:47.745Z,18.88
2023-02-09T09:27:46.837Z,16.55
2023-02-09T09:32:44.537Z,12.80
2023-02-09T09:37:41.518Z,17.23
2023-02-09T09:42:42.263Z,18.38
2023-02-09T09:47:41.117Z,14.95
2023-02-09T09:52:43.021Z,15.57
2023-02-09T09:57:44.217Z,19.20
2023-02-09T10:02:41.270Z,17.27
2023-02-09T10:07:43.258Z,17.80
2023-02-09T10:12:47.851Z,15.35
2023-02-09T10:17:44.707Z,16.88
2023-02-09T10:22:44.891Z,12.98
2023-02-09T10:27:46.727Z,12.93
2023-02-09T10:32:44.742Z,12.25
2023-02-09T10:37:43.269Z,14.63
2023-02-09T10:42:56.687Z,9.25
2023-02-09T10:47:58.969Z,12.55
2023-02-09T10:52:59.069Z,9.55
2023-02-09T10:58:17.631Z,12.90
2023-02-09T11:03:18.802Z,12.32
2023-02-09T11:08:22.263Z,13.55
2023-02-09T11:13:26.182Z,12.88
2023-02-09T11:18:26.195Z,11.50
2023-02-09T11:23:37.473Z,12.45
2023-02-09T11:28:45.044Z,12.38
2023-02-09T11:33:49.783Z,10.88
2023-02-09T11:38:52.349Z,11.95
2023-02-09T11:43:53.662Z,10.10
2023-02-09T11:48:58.576Z,9.55
2023-02-09T11:54:00.426Z,10.97
2023-02-09T11:59:03.993Z,10.27
2023-02-09T12:04:08.116Z,9.55
2023-02-09T12:09:18.275Z,6.80
2023-02-09T12:14:35.182Z,8.40
2023-02-09T12:19:35.950Z,5.55
2023-02-09T12:24:37.958Z,7.57
2023-02-09T12:29:38.520Z,5.35
2023-02-09T12:34:40.350Z,6.55
2023-02-09T12:39:38.925Z,8.40
2023-02-09T12:44:38.904Z,9.20
2023-02-09T12:49:35.963Z,8.55
2023-02-09T12:54:40.148Z,6.90
2023-02-09T12:59:37.832Z,8.60
2023-02-09T13:04:39.369Z,9.20
2023-02-09T13:09:40.526Z,8.25
2023-02-09T13:14:39.064Z,9.63
2023-02-09T13:20:12.788Z,7.88
2023-02-09T13:25:15.293Z,8.00
2023-02-09T13:30:24.080Z,8.90
2023-02-09T13:35:26.136Z,11.30
2023-02-09T13:40:26.309Z,7.93
2023-02-09T13:45:26.231Z,8.10
2023-02-09T13:50:25.053Z,8.38
2023-02-09T13:55:24.147Z,10.13
2023-02-09T14:00:27.745Z,8.07
2023-02-09T14:05:38.099Z,9.77
2023-02-09T14:10:36.237Z,8.45
2023-02-09T14:15:59.131Z,9.90
2023-02-09T14:21:02.211Z,8.98
2023-02-09T14:26:04.919Z,8.23
2023-02-09T14:31:06.698Z,6.25
2023-02-09T14:36:20.469Z,11.00
2023-02-09T14:41:32.283Z,5.13
2023-02-09T14:46:46.860Z,8.65
2023-02-09T14:51:44.951Z,6.80
2023-02-09T14:56:42.788Z,6.05
2023-02-09T15:01:40.558Z,7.07
2023-02-09T15:06:38.221Z,5.95
2023-02-09T15:11:53.445Z,7.07
2023-02-09T15:16:51.294Z,7.17
2023-02-09T15:22:01.812Z,7.18
2023-02-09T15:27:03.620Z,9.13
2023-02-09T15:32:01.593Z,7.97
2023-02-09T15:36:58.547Z,7.15
2023-02-09T15:42:13.965Z,6.65
2023-02-09T15:47:29.717Z,6.43
2023-02-09T15:52:29.717Z,7.30
2023-02-09T15:57:26.618Z,8.57
2023-02-09T16:02:25.902Z,7.40
2023-02-09T16:07:26.492Z,8.15
2023-02-09T16:12:24.264Z,8.82
2023-02-09T16:17:21.301Z,6.28
2023-02-09T16:22:23.040Z,10.88
2023-02-09T16:27:23.821Z,7.60
2023-02-09T16:32:26.326Z,13.00
2023-02-09T16:37:29.402Z,11.50
2023-02-09T16:42:32.026Z,10.20
2023-02-09T16:47:31.545Z,12.50
2023-02-09T16:52:30.528Z,14.95
2023-02-09T16:57:29.985Z,15.20
2023-02-09T17:02:34.875Z,15.80
2023-02-09T17:07:48.727Z,15.47
2023-02-09T17:12:52.614Z,17.85
2023-02-09T17:17:54.994Z,15.63
2023-02-09T17:22:54.822Z,15.60
2023-02-09T17:27:52.403Z,19.02
2023-02-09T17:32:59.344Z,17.27
2023-02-09T17:37:57.217Z,20.80
2023-02-09T17:42:54.091Z,21.25
2023-02-09T17:47:52.653Z,21.75
2023-02-09T17:52:50.152Z,23.20
2023-02-09T17:57:48.180Z,20.00
2023-02-09T18:02:45.216Z,23.88
2023-02-09T18:07:42.240Z,25.40
2023-02-09T18:12:39.463Z,24.02
2023-02-09T18:17:42.437Z,23.20
2023-02-09T18:22:42.694Z,22.00
2023-02-09T18:27:39.787Z,25.50
2023-02-09T18:32:42.234Z,22.83
2023-02-09T18:37:58.945Z,23.67
2023-02-09T18:42:56.116Z,24.13
2023-02-09T18:47:54.239Z,25.08
2023-02-09T18:52:53.469Z,27.10
2023-02-09T18:57:51.618Z,27.80
2023-02-09T19:02:55.502Z,36.67
2023-02-09T19:07:54.956Z,40.35
2023-02-09T19:12:52.178Z,38.35
2023-02-09T19:17:49.813Z,37.13
2023-02-09T19:22:47.399Z,33.20
2023-02-09T19:27:45.320Z,29.60
2023-02-09T19:32:42.199Z,27.25
2023-02-09T19:37:41.260Z,26.23
2023-02-09T19:42:38.160Z,26.98
2023-02-09T19:47:37.059Z,25.95
2023-02-09T19:52:36.744Z,26.63
2023-02-09T19:57:33.630Z,26.05
2023-02-09T20:02:30.531Z,27.90
2023-02-09T20:07:29.785Z,28.40
2023-02-09T20:12:27.112Z,28.88
2023-02-09T20:17:24.185Z,30.83
2023-02-09T20:22:21.183Z,30.30
2023-02-09T20:27:18.860Z,24.77
2023-02-09T20:32:15.872Z,25.05
2023-02-09T20:37:12.827Z,26.23
2023-02-09T20:42:28.074Z,22.42
2023-02-09T20:47:26.180Z,16.50
2023-02-09T20:52:23.154Z,20.77
2023-02-09T20:57:20.068Z,19.50
2023-02-09T21:02:17.111Z,21.92
2023-02-09T21:07:14.756Z,20.77
2023-02-09T21:12:11.719Z,21.05
2023-02-09T21:17:08.610Z,20.80
2023-02-09T21:22:05.804Z,21.92
2023-02-09T21:27:05.977Z,21.52
2023-02-09T21:32:05.362Z,22.73
2023-02-09T21:37:09.581Z,21.73
2023-02-09T21:42:25.918Z,21.13
2023-02-09T21:47:25.590Z,25.70
2023-02-09T21:52:23.408Z,26.55
2023-02-09T21:57:22.107Z,23.50
2023-02-09T22:02:20.238Z,27.13
2023-02-09T22:07:17.215Z,28.27
2023-02-09T22:12:14.202Z,28.95
2023-02-09T22:17:12.060Z,30.75
2023-02-09T22:22:09.869Z,22.95
2023-02-09T22:27:06.749Z,21.80
2023-02-09T22:32:03.808Z,19.88
2023-02-09T22:37:01.666Z,17.48
2023-02-09T22:41:59.017Z,20.67
2023-02-09T22:46:56.274Z,18.77
2023-02-09T22:51:53.110Z,18.23
2023-02-09T22:56:51.433Z,16.33
2023-02-09T23:01:48.420Z,16.00
2023-02-09T23:06:45.476Z,14.45
2023-02-09T23:11:43.531Z,15.35
2023-02-09T23:16:43.136Z,18.08
2023-02-09T23:21:42.228Z,17.55
2023-02-09T23:26:39.944Z,17.77
2023-02-09T23:31:36.968Z,18.88
2023-02-09T23:36:35.274Z,19.52
2023-02-09T23:41:33.050Z,17.67
2023-02-09T23:46:30.142Z,15.93
2023-02-09T23:51:29.234Z,14.38
2023-02-09T23:56:29.307Z,13.77
